Time;durP1;ratioP1;P1;durP2;ratioP2;P2;SDS_P1;SDS_P2;PMS_P1;PMS_P2;Temp;Humidity;BMP_temperature;BMP_pressure;BME280_temperature;BME280_humidity;BME280_pressure;Samples;Min_cycle;Max_cycle;Signal;HPM_P1;HPM_P2
2023/12/27 00:00:04;;;;;;;7.75;2.45;;;4.40;99.90;;;;;;5115430;28;20205;-64
2023/12/27 00:02:31;;;;;;;3.13;1.52;;;4.40;99.90;;;;;;5115861;28;20232;-65
2023/12/27 00:04:58;;;;;;;10.80;2.15;;;4.40;99.90;;;;;;5115438;28;20203;-66
2023/12/27 00:07:25;;;;;;;6.30;2.20;;;4.40;99.90;;;;;;5114486;28;20200;-64
2023/12/27 00:09:51;;;;;;;6.60;2.20;;;4.40;99.90;;;;;;5115377;28;20203;-64
2023/12/27 00:12:18;;;;;;;5.72;1.70;;;4.40;99.90;;;;;;5114595;28;20234;-63
2023/12/27 00:14:46;;;;;;;4.88;1.80;;;4.40;99.90;;;;;;5115334;28;20575;-64
2023/12/27 00:17:13;;;;;;;6.40;2.08;;;4.40;99.90;;;;;;5114862;28;20223;-63
2023/12/27 00:19:40;;;;;;;11.15;1.95;;;4.40;99.90;;;;;;5116094;28;20206;-64
2023/12/27 00:22:07;;;;;;;13.10;2.60;;;4.40;99.90;;;;;;5115197;28;20223;-65
2023/12/27 00:24:33;;;;;;;5.95;2.13;;;4.40;99.90;;;;;;5114627;28;20204;-64
2023/12/27 00:27:00;;;;;;;9.43;2.00;;;4.40;99.90;;;;;;5114439;28;20203;-64
2023/12/27 00:29:27;;;;;;;9.27;1.80;;;4.40;99.90;;;;;;5118448;28;20204;-64
2023/12/27 00:31:55;;;;;;;7.65;2.30;;;4.40;99.90;;;;;;5118305;28;20219;-64
2023/12/27 00:34:22;;;;;;;9.27;2.30;;;4.40;99.90;;;;;;5118601;28;20195;-64
2023/12/27 00:36:48;;;;;;;12.82;2.13;;;4.40;99.90;;;;;;5118550;28;20219;-64
2023/12/27 00:39:16;;;;;;;6.60;1.92;;;4.30;99.90;;;;;;5118542;28;20196;-63
2023/12/27 00:41:43;;;;;;;8.43;1.85;;;4.30;99.90;;;;;;5118232;28;20227;-64
2023/12/27 00:44:10;;;;;;;5.97;2.05;;;4.30;99.90;;;;;;5118100;28;20199;-64
2023/12/27 00:46:37;;;;;;;5.25;1.63;;;4.30;99.90;;;;;;5117956;28;20202;-64
2023/12/27 00:49:05;;;;;;;3.55;1.98;;;4.20;99.90;;;;;;5118138;28;20620;-65
2023/12/27 00:51:32;;;;;;;6.15;1.80;;;4.20;99.90;;;;;;5117454;28;20224;-64
2023/12/27 00:53:59;;;;;;;6.43;1.77;;;4.20;99.90;;;;;;5117426;28;20575;-64
2023/12/27 00:56:26;;;;;;;3.20;2.35;;;4.10;99.90;;;;;;5117375;28;20231;-64
2023/12/27 00:58:52;;;;;;;6.82;1.65;;;4.10;99.90;;;;;;5117278;28;20209;-64
2023/12/27 01:01:19;;;;;;;5.75;1.40;;;4.00;99.90;;;;;;5116974;28;20234;-65
2023/12/27 01:03:46;;;;;;;7.55;2.00;;;4.00;99.90;;;;;;5117612;28;20200;-64
2023/12/27 01:06:14;;;;;;;4.25;2.15;;;4.00;99.90;;;;;;5117188;28;20200;-64
2023/12/27 01:08:41;;;;;;;10.18;2.20;;;4.00;99.90;;;;;;5116936;28;20206;-65
2023/12/27 01:11:08;;;;;;;6.00;1.80;;;4.00;99.90;;;;;;5117106;28;20220;-64
2023/12/27 01:13:34;;;;;;;4.63;1.95;;;4.10;99.90;;;;;;5117235;28;20210;-64
2023/12/27 01:16:02;;;;;;;10.55;2.05;;;4.10;99.90;;;;;;5116770;28;20641;-64
2023/12/27 01:18:29;;;;;;;6.00;1.52;;;4.10;99.90;;;;;;5117058;28;20278;-65
2023/12/27 01:20:55;;;;;;;6.57;2.50;;;4.10;99.90;;;;;;5117042;28;20205;-65
2023/12/27 01:23:24;;;;;;;5.72;1.35;;;4.10;99.90;;;;;;5116921;28;20201;-63
2023/12/27 01:25:50;;;;;;;7.30;1.88;;;4.00;99.90;;;;;;5116939;28;20199;-64
2023/12/27 01:28:17;;;;;;;6.72;1.40;;;4.00;99.90;;;;;;5117790;28;20195;-64
2023/12/27 01:30:44;;;;;;;6.45;2.53;;;4.00;99.90;;;;;;5120433;28;20718;-63
2023/12/27 01:33:11;;;;;;;8.00;2.20;;;4.00;99.90;;;;;;5121163;28;20204;-65
2023/12/27 01:35:37;;;;;;;8.10;1.95;;;4.00;99.90;;;;;;5120972;28;20657;-65
2023/12/27 01:38:04;;;;;;;6.68;2.22;;;4.00;99.90;;;;;;5121312;28;20219;-64
2023/12/27 01:40:32;;;;;;;3.47;2.15;;;4.00;99.90;;;;;;5119996;28;20199;-64
2023/12/27 01:42:59;;;;;;;2.60;1.30;;;4.00;99.90;;;;;;5118714;28;20215;-64
2023/12/27 01:45:26;;;;;;;2.90;1.75;;;4.00;99.90;;;;;;5118713;28;20206;-63
2023/12/27 01:47:53;;;;;;;6.95;2.33;;;4.00;99.90;;;;;;5119167;28;20196;-65
2023/12/27 01:50:21;;;;;;;5.22;1.98;;;4.00;99.90;;;;;;5118649;28;20207;-64
2023/12/27 01:52:48;;;;;;;4.60;1.67;;;3.90;99.90;;;;;;5118402;28;20306;-65
2023/12/27 01:55:17;;;;;;;7.70;1.45;;;3.80;99.90;;;;;;5118208;28;20210;-64
2023/12/27 01:57:45;;;;;;;8.98;1.63;;;3.80;99.90;;;;;;5119016;28;20222;-64
2023/12/27 02:00:15;;;;;;;8.80;2.45;;;3.70;99.90;;;;;;5119179;28;20202;-65
2023/12/27 02:02:42;;;;;;;4.55;1.67;;;3.70;99.90;;;;;;5119649;28;20235;-63
2023/12/27 02:05:10;;;;;;;7.85;2.15;;;3.60;99.90;;;;;;5124518;28;20200;-64
2023/12/27 02:07:37;;;;;;;4.35;1.65;;;3.60;99.90;;;;;;5121728;28;20206;-64
2023/12/27 02:10:06;;;;;;;7.45;1.95;;;3.50;99.90;;;;;;5118861;28;20199;-64
2023/12/27 02:12:32;;;;;;;5.85;1.70;;;3.50;99.90;;;;;;5118558;28;20708;-64
2023/12/27 02:15:00;;;;;;;6.88;1.75;;;3.40;99.90;;;;;;5119712;28;20200;-64
2023/12/27 02:17:27;;;;;;;7.90;1.85;;;3.40;99.90;;;;;;5119849;28;20223;-65
2023/12/27 02:19:55;;;;;;;5.60;1.65;;;3.30;99.90;;;;;;5118982;28;20319;-64
2023/12/27 02:22:24;;;;;;;5.85;1.67;;;3.20;99.90;;;;;;5119605;28;20224;-64
2023/12/27 02:24:54;;;;;;;6.85;2.40;;;3.20;99.90;;;;;;5119553;28;20200;-64
2023/12/27 02:27:20;;;;;;;9.63;1.85;;;3.20;99.90;;;;;;5119360;28;20249;-64
2023/12/27 02:29:47;;;;;;;5.65;1.70;;;3.10;99.90;;;;;;5118001;28;20206;-64
2023/12/27 02:32:14;;;;;;;4.22;1.80;;;3.10;99.90;;;;;;5118058;28;20231;-64
2023/12/27 02:34:41;;;;;;;6.63;1.40;;;3.10;99.90;;;;;;5118110;28;20202;-64
2023/12/27 02:37:08;;;;;;;10.15;1.83;;;3.10;99.90;;;;;;5117920;28;20215;-64
2023/12/27 02:39:35;;;;;;;12.68;1.90;;;3.10;99.90;;;;;;5116991;28;20203;-64
2023/12/27 02:42:03;;;;;;;5.57;2.28;;;3.10;99.90;;;;;;5116396;28;20228;-64
2023/12/27 02:44:30;;;;;;;11.63;2.63;;;3.00;99.90;;;;;;5116030;28;20205;-64
2023/12/27 02:46:56;;;;;;;7.95;1.75;;;3.00;99.90;;;;;;5116492;28;20200;-64
2023/12/27 02:49:23;;;;;;;7.72;3.95;;;3.00;99.90;;;;;;5115853;28;20207;-64
2023/12/27 02:51:50;;;;;;;8.95;2.40;;;2.90;99.90;;;;;;5115017;28;20555;-64
2023/12/27 02:54:17;;;;;;;5.38;2.03;;;2.90;99.90;;;;;;5115777;28;20210;-64
2023/12/27 02:56:43;;;;;;;5.28;1.90;;;2.80;99.90;;;;;;5115560;28;20200;-64
2023/12/27 02:59:11;;;;;;;8.38;2.13;;;2.80;99.90;;;;;;5115448;28;20195;-66
2023/12/27 03:01:38;;;;;;;7.78;2.40;;;2.70;99.90;;;;;;5115626;28;20227;-64
2023/12/27 03:04:05;;;;;;;13.70;1.92;;;2.70;99.90;;;;;;5115147;28;20203;-64
2023/12/27 03:06:32;;;;;;;11.93;2.78;;;2.70;99.90;;;;;;5115554;28;20196;-64
2023/12/27 03:08:59;;;;;;;8.77;2.15;;;2.70;99.90;;;;;;5115631;28;20226;-64
2023/12/27 03:11:25;;;;;;;7.13;2.20;;;2.60;99.90;;;;;;5115189;28;20310;-65
2023/12/27 03:13:52;;;;;;;9.55;2.25;;;2.60;99.90;;;;;;5114709;28;20211;-61
2023/12/27 03:16:20;;;;;;;7.35;2.22;;;2.60;99.90;;;;;;5115897;28;20196;-64
2023/12/27 03:18:47;;;;;;;5.88;1.88;;;2.60;99.90;;;;;;5118947;28;20216;-64
2023/12/27 03:21:14;;;;;;;6.63;2.10;;;2.60;99.90;;;;;;5118800;28;20223;-65
2023/12/27 03:23:41;;;;;;;6.00;1.73;;;2.50;99.90;;;;;;5118754;28;20196;-63
2023/12/27 03:26:07;;;;;;;9.63;1.85;;;2.50;99.90;;;;;;5114601;28;20218;-63
2023/12/27 03:28:34;;;;;;;8.90;1.60;;;2.40;99.90;;;;;;5114250;28;20202;-64
2023/12/27 03:31:01;;;;;;;9.07;2.60;;;2.40;99.90;;;;;;5114292;28;20208;-65
2023/12/27 03:33:29;;;;;;;12.27;2.55;;;2.40;99.90;;;;;;5114412;28;20204;-64
2023/12/27 03:35:56;;;;;;;7.78;1.65;;;2.30;99.90;;;;;;5114159;28;20204;-64
2023/12/27 03:38:23;;;;;;;9.43;2.40;;;2.30;99.90;;;;;;5113776;28;20554;-66
2023/12/27 03:40:49;;;;;;;6.55;2.45;;;2.30;99.90;;;;;;5114188;28;20555;-64
2023/12/27 03:43:16;;;;;;;6.72;2.40;;;2.30;99.90;;;;;;5114006;28;20626;-63
2023/12/27 03:45:45;;;;;;;4.63;2.25;;;2.20;99.90;;;;;;5114161;28;20203;-62
2023/12/27 03:48:12;;;;;;;6.53;2.30;;;2.20;99.90;;;;;;5113873;28;20196;-61
2023/12/27 03:50:41;;;;;;;4.45;2.10;;;2.10;99.90;;;;;;5113920;28;20199;-64
2023/12/27 03:53:08;;;;;;;8.48;2.35;;;2.10;99.90;;;;;;5113869;28;20223;-64
2023/12/27 03:55:34;;;;;;;9.43;2.50;;;2.00;99.90;;;;;;5113751;28;20200;-64
2023/12/27 03:58:01;;;;;;;6.65;2.35;;;2.00;99.90;;;;;;5113615;28;20220;-63
2023/12/27 04:00:29;;;;;;;6.45;2.00;;;1.90;99.90;;;;;;5113903;28;20207;-63
2023/12/27 04:02:56;;;;;;;5.78;2.00;;;1.90;99.90;;;;;;5112726;28;20235;-64
2023/12/27 04:05:22;;;;;;;7.10;2.00;;;1.90;99.90;;;;;;5113565;28;20291;-63
2023/12/27 04:07:51;;;;;;;11.68;3.10;;;1.80;99.90;;;;;;5113485;28;20205;-63
2023/12/27 04:12:50;;;;;;;7.57;2.30;;;1.80;99.90;;;;;;5081491;27;2065075;-65
2023/12/27 04:15:17;;;;;;;9.40;2.15;;;1.80;99.90;;;;;;5152611;27;20194;-65
2023/12/27 04:17:44;;;;;;;7.97;2.42;;;1.80;99.90;;;;;;5152552;27;20198;-65
2023/12/27 04:20:11;;;;;;;8.60;2.08;;;1.80;99.90;;;;;;5152519;27;20202;-65
2023/12/27 04:22:38;;;;;;;12.52;2.53;;;1.80;99.90;;;;;;5152479;27;20225;-65
2023/12/27 04:25:06;;;;;;;11.65;3.22;;;1.80;99.90;;;;;;5153014;27;20199;-64
2023/12/27 04:27:32;;;;;;;10.40;3.03;;;1.80;99.90;;;;;;5152233;27;20583;-63
2023/12/27 04:30:00;;;;;;;9.13;2.45;;;1.80;99.90;;;;;;5152658;27;20209;-64
2023/12/27 04:32:27;;;;;;;5.85;2.15;;;1.80;99.90;;;;;;5152330;27;20232;-65
2023/12/27 04:34:54;;;;;;;5.38;2.08;;;1.80;99.90;;;;;;5152323;27;20198;-65
2023/12/27 04:37:21;;;;;;;7.63;1.90;;;1.80;99.90;;;;;;5152826;27;20209;-65
2023/12/27 04:39:47;;;;;;;4.78;1.90;;;1.70;99.90;;;;;;5152158;27;20203;-64
2023/12/27 04:42:14;;;;;;;11.15;2.40;;;1.70;99.90;;;;;;5152294;27;20225;-65
2023/12/27 04:44:41;;;;;;;9.90;3.13;;;1.70;99.90;;;;;;5152142;27;20203;-65
2023/12/27 04:47:10;;;;;;;4.90;2.70;;;1.70;99.90;;;;;;5151761;27;20576;-64
2023/12/27 04:49:36;;;;;;;7.05;1.85;;;1.80;99.90;;;;;;5151655;27;20237;-65
2023/12/27 04:52:03;;;;;;;7.45;3.10;;;1.90;99.90;;;;;;5152179;27;20222;-65
2023/12/27 04:54:30;;;;;;;9.32;2.70;;;1.90;99.90;;;;;;5151971;27;20204;-66
2023/12/27 04:56:57;;;;;;;8.82;3.10;;;2.00;99.90;;;;;;5152388;27;20296;-64
2023/12/27 04:59:24;;;;;;;13.85;3.17;;;2.00;99.90;;;;;;5152432;27;20207;-64
2023/12/27 05:01:51;;;;;;;7.05;2.38;;;2.10;99.90;;;;;;5154668;22;20233;-64
2023/12/27 05:04:19;;;;;;;6.68;2.65;;;2.20;99.90;;;;;;5110124;28;20226;-61
2023/12/27 05:06:46;;;;;;;6.20;2.75;;;2.20;99.90;;;;;;5109831;28;20200;-63
2023/12/27 05:09:16;;;;;;;9.20;2.38;;;2.20;99.90;;;;;;5109806;28;20249;-63
2023/12/27 05:11:43;;;;;;;10.65;2.17;;;2.30;99.90;;;;;;5109767;28;20314;-62
2023/12/27 05:14:09;;;;;;;6.53;2.33;;;2.30;99.90;;;;;;5109796;28;20206;-61
2023/12/27 05:16:36;;;;;;;8.20;2.55;;;2.40;99.90;;;;;;5109702;28;20196;-59
2023/12/27 05:19:03;;;;;;;4.72;2.50;;;2.40;99.90;;;;;;5109965;28;20203;-60
2023/12/27 05:21:31;;;;;;;7.60;2.53;;;2.40;99.90;;;;;;5109744;28;20219;-61
2023/12/27 05:23:58;;;;;;;7.05;2.05;;;2.50;99.90;;;;;;5097439;28;20200;-62
2023/12/27 05:26:25;;;;;;;6.20;2.65;;;2.50;99.90;;;;;;5096039;28;20212;-61
2023/12/27 05:28:52;;;;;;;5.20;2.40;;;2.50;99.90;;;;;;5095919;28;20203;-61
2023/12/27 05:31:18;;;;;;;6.10;2.88;;;2.60;99.90;;;;;;5095903;28;20224;-61
2023/12/27 05:33:45;;;;;;;6.72;2.42;;;2.60;99.90;;;;;;5095813;28;20215;-61
2023/12/27 05:36:12;;;;;;;3.78;1.90;;;2.70;99.90;;;;;;5095888;28;20211;-61
2023/12/27 05:38:40;;;;;;;5.40;3.00;;;2.70;99.90;;;;;;5095856;28;20200;-61
2023/12/27 05:41:07;;;;;;;4.85;1.85;;;2.70;99.90;;;;;;5095141;28;20680;-61
2023/12/27 05:43:34;;;;;;;7.88;2.63;;;2.70;99.90;;;;;;5095901;28;20201;-62
2023/12/27 05:46:01;;;;;;;11.98;2.83;;;2.70;99.90;;;;;;5096954;28;20211;-60
2023/12/27 05:48:28;;;;;;;5.13;2.03;;;2.80;99.90;;;;;;5099083;28;20204;-60
2023/12/27 05:50:55;;;;;;;10.80;3.20;;;2.80;99.90;;;;;;5101796;28;20666;-60
2023/12/27 05:53:21;;;;;;;11.48;2.60;;;2.80;99.90;;;;;;5101711;28;20205;-60
2023/12/27 05:55:50;;;;;;;6.45;1.90;;;2.80;99.90;;;;;;5102099;28;20200;-60
2023/12/27 05:58:16;;;;;;;10.98;2.17;;;2.80;99.90;;;;;;5096129;28;20201;-61
2023/12/27 06:00:43;;;;;;;4.88;2.50;;;2.90;99.90;;;;;;5095593;28;20200;-60
2023/12/27 06:03:10;;;;;;;9.85;3.05;;;2.90;99.90;;;;;;5095029;28;20193;-61
2023/12/27 06:05:37;;;;;;;5.13;2.03;;;2.90;99.90;;;;;;5094898;28;20580;-62
2023/12/27 06:08:04;;;;;;;8.98;2.83;;;2.90;99.90;;;;;;5095022;28;20200;-61
2023/12/27 06:10:31;;;;;;;8.25;2.58;;;2.90;99.90;;;;;;5095227;28;20204;-61
2023/12/27 06:12:59;;;;;;;4.47;1.98;;;3.00;99.90;;;;;;5094814;28;20224;-61
2023/12/27 06:15:26;;;;;;;10.70;2.53;;;2.90;99.90;;;;;;5095025;28;20197;-62
2023/12/27 06:17:53;;;;;;;4.03;1.98;;;2.90;99.90;;;;;;5094942;28;20200;-61
2023/12/27 06:20:19;;;;;;;9.20;2.33;;;2.90;99.90;;;;;;5095015;28;20206;-61
2023/12/27 06:22:46;;;;;;;7.80;2.42;;;2.90;99.90;;;;;;5094638;28;20213;-63
2023/12/27 06:25:13;;;;;;;6.90;2.45;;;2.90;99.90;;;;;;5094861;28;20223;-61
2023/12/27 06:27:40;;;;;;;8.57;2.67;;;2.80;99.90;;;;;;5095566;28;20295;-62
2023/12/27 06:30:09;;;;;;;5.72;2.40;;;2.80;99.90;;;;;;5096084;28;20208;-61
2023/12/27 06:32:36;;;;;;;5.43;2.30;;;2.80;99.90;;;;;;5095307;28;20688;-60
2023/12/27 06:35:03;;;;;;;9.98;2.97;;;2.80;99.90;;;;;;5094860;28;20208;-60
2023/12/27 06:37:29;;;;;;;7.05;2.53;;;2.70;99.90;;;;;;5095065;28;20674;-60
2023/12/27 06:39:56;;;;;;;7.70;2.70;;;2.70;99.90;;;;;;5095034;28;20205;-59
2023/12/27 06:42:23;;;;;;;8.57;2.10;;;2.70;99.90;;;;;;5094416;28;20219;-60
2023/12/27 06:44:50;;;;;;;5.00;2.35;;;2.60;99.90;;;;;;5094920;28;20204;-60
2023/12/27 06:47:18;;;;;;;4.20;2.10;;;2.60;99.90;;;;;;5102234;28;20203;-60
2023/12/27 06:49:47;;;;;;;5.13;2.55;;;2.60;99.90;;;;;;5098181;28;20207;-60
2023/12/27 06:52:14;;;;;;;9.25;3.05;;;2.60;99.90;;;;;;5094156;28;20220;-62
2023/12/27 06:54:41;;;;;;;7.43;2.58;;;2.60;99.90;;;;;;5094973;28;20197;-60
2023/12/27 06:57:07;;;;;;;9.82;3.30;;;2.60;99.90;;;;;;5094329;28;20215;-61
2023/12/27 06:59:34;;;;;;;6.75;2.45;;;2.50;99.90;;;;;;5094180;28;20208;-61
2023/12/27 07:02:01;;;;;;;5.65;2.80;;;2.60;99.90;;;;;;5094010;28;20234;-60
2023/12/27 07:04:29;;;;;;;9.43;3.63;;;2.60;99.90;;;;;;5094171;28;20200;-61
2023/12/27 07:06:56;;;;;;;5.50;2.70;;;2.60;99.90;;;;;;5094013;28;20206;-61
2023/12/27 07:09:22;;;;;;;9.55;3.38;;;2.60;99.90;;;;;;5094135;28;20207;-61
2023/12/27 07:11:49;;;;;;;8.45;3.00;;;2.60;99.90;;;;;;5093948;28;20220;-62
2023/12/27 07:14:16;;;;;;;8.88;2.92;;;2.70;99.90;;;;;;5093983;28;20201;-62
2023/12/27 07:16:44;;;;;;;6.15;2.78;;;2.70;99.90;;;;;;5094028;28;20204;-62
2023/12/27 07:19:11;;;;;;;3.92;3.05;;;2.80;99.90;;;;;;5093906;28;20304;-62
2023/12/27 07:21:39;;;;;;;6.75;2.50;;;2.80;99.90;;;;;;5093545;28;20308;-61
2023/12/27 07:24:06;;;;;;;7.63;3.10;;;2.80;99.90;;;;;;5093338;28;20197;-63
2023/12/27 07:26:33;;;;;;;8.05;2.65;;;2.80;99.90;;;;;;5093678;28;20196;-62
2023/12/27 07:29:00;;;;;;;9.65;2.58;;;2.80;99.90;;;;;;5093514;28;20249;-62
2023/12/27 07:31:27;;;;;;;9.70;3.38;;;2.90;99.90;;;;;;5093323;28;20220;-63
2023/12/27 07:33:54;;;;;;;7.75;2.63;;;2.80;99.90;;;;;;5093381;28;20207;-62
2023/12/27 07:36:21;;;;;;;8.68;2.75;;;2.80;99.90;;;;;;5093152;28;20196;-61
2023/12/27 07:38:49;;;;;;;5.45;2.70;;;2.80;99.90;;;;;;5093284;28;20219;-59
2023/12/27 07:41:16;;;;;;;7.03;2.58;;;2.90;99.90;;;;;;5093160;28;20234;-60
2023/12/27 07:43:42;;;;;;;7.18;2.42;;;2.90;99.90;;;;;;5093587;28;20196;-59
2023/12/27 07:46:10;;;;;;;6.10;1.90;;;2.90;99.90;;;;;;5093157;28;20208;-61
2023/12/27 07:48:37;;;;;;;6.00;2.50;;;2.90;99.90;;;;;;5093447;28;20235;-61
2023/12/27 07:51:04;;;;;;;9.10;3.13;;;2.90;99.90;;;;;;5093333;28;20216;-62
2023/12/27 07:53:31;;;;;;;6.75;2.75;;;3.00;99.90;;;;;;5092989;28;20220;-61
2023/12/27 07:55:59;;;;;;;9.63;3.55;;;3.00;99.90;;;;;;5093136;28;20688;-61
2023/12/27 07:58:26;;;;;;;8.70;3.00;;;3.00;99.90;;;;;;5093583;28;20570;-63
2023/12/27 08:00:53;;;;;;;12.90;2.63;;;3.00;99.90;;;;;;5093156;28;20200;-65
2023/12/27 08:03:20;;;;;;;7.47;2.60;;;3.10;99.90;;;;;;5094072;28;20233;-63
2023/12/27 08:05:47;;;;;;;9.65;2.83;;;3.10;99.90;;;;;;5093385;28;20207;-62
2023/12/27 08:08:14;;;;;;;7.07;3.50;;;3.10;99.90;;;;;;5093301;28;20200;-60
2023/12/27 08:10:41;;;;;;;7.88;3.40;;;3.10;99.90;;;;;;5093192;28;20196;-61
2023/12/27 08:13:09;;;;;;;7.22;2.95;;;3.10;99.90;;;;;;5092783;28;20786;-60
2023/12/27 08:15:35;;;;;;;9.65;2.90;;;3.20;99.90;;;;;;5092892;28;20228;-60
2023/12/27 08:18:03;;;;;;;9.45;3.13;;;3.20;99.90;;;;;;5093439;28;20273;-62
2023/12/27 08:20:30;;;;;;;4.60;2.40;;;3.30;99.90;;;;;;5093234;28;20666;-61
2023/12/27 08:22:58;;;;;;;8.85;3.50;;;3.30;99.90;;;;;;5093385;28;20241;-61
2023/12/27 08:25:25;;;;;;;7.38;2.60;;;3.40;99.90;;;;;;5093451;28;20646;-62
2023/12/27 08:27:51;;;;;;;11.60;3.28;;;3.40;99.90;;;;;;5093671;28;20206;-62
2023/12/27 08:30:20;;;;;;;5.90;2.42;;;3.50;99.90;;;;;;5093375;28;20196;-62
2023/12/27 08:32:46;;;;;;;5.68;3.22;;;3.50;99.90;;;;;;5093489;28;20224;-62
2023/12/27 08:35:14;;;;;;;6.50;2.72;;;3.60;99.90;;;;;;5093182;28;20200;-62
2023/12/27 08:37:41;;;;;;;11.68;3.33;;;3.60;99.90;;;;;;5092860;28;20200;-63
2023/12/27 08:40:10;;;;;;;7.28;3.10;;;3.70;99.90;;;;;;5092727;28;20748;-63
2023/12/27 08:42:36;;;;;;;7.00;2.80;;;3.80;99.90;;;;;;5103792;28;20231;-63
2023/12/27 08:45:04;;;;;;;9.77;3.00;;;3.90;99.90;;;;;;5098491;28;20677;-63
2023/12/27 08:47:32;;;;;;;11.35;3.60;;;3.90;99.90;;;;;;5092629;28;20200;-61
2023/12/27 08:49:59;;;;;;;7.70;2.72;;;4.00;99.90;;;;;;5092574;28;20196;-61
2023/12/27 08:52:25;;;;;;;5.03;2.70;;;4.00;99.90;;;;;;5092533;28;20311;-62
2023/12/27 08:54:53;;;;;;;6.20;3.50;;;4.00;99.90;;;;;;5092895;28;20204;-60
2023/12/27 08:57:20;;;;;;;7.38;3.10;;;4.10;99.90;;;;;;5092836;28;20205;-61
2023/12/27 08:59:47;;;;;;;5.50;3.40;;;4.10;99.90;;;;;;5096241;28;20642;-62
2023/12/27 09:02:13;;;;;;;7.93;4.05;;;4.20;99.90;;;;;;5096323;28;20224;-61
2023/12/27 09:04:42;;;;;;;8.30;3.80;;;4.20;99.90;;;;;;5096643;28;20207;-61
2023/12/27 09:07:08;;;;;;;4.00;2.97;;;4.30;99.90;;;;;;5096230;28;20292;-61
2023/12/27 09:09:35;;;;;;;7.30;2.95;;;4.30;99.90;;;;;;5096511;28;20211;-61
2023/12/27 09:12:04;;;;;;;9.23;4.03;;;4.40;99.90;;;;;;5096752;28;20222;-61
2023/12/27 09:14:31;;;;;;;5.45;2.95;;;4.40;99.90;;;;;;5097359;28;20290;-61
2023/12/27 09:16:58;;;;;;;6.70;3.15;;;4.50;99.90;;;;;;5096246;28;20212;-62
2023/12/27 09:19:24;;;;;;;5.30;3.35;;;4.60;99.90;;;;;;5096183;28;20204;-62
2023/12/27 09:21:53;;;;;;;6.45;3.10;;;4.60;99.90;;;;;;5096309;28;20216;-64
2023/12/27 09:24:19;;;;;;;9.30;4.22;;;4.70;99.90;;;;;;5096354;28;20207;-60
2023/12/27 09:26:48;;;;;;;8.13;3.22;;;4.70;99.90;;;;;;5096167;28;20206;-61
2023/12/27 09:29:15;;;;;;;6.65;3.05;;;4.80;99.90;;;;;;5096171;28;20220;-61
2023/12/27 09:31:43;;;;;;;14.55;3.17;;;4.80;99.90;;;;;;5096214;28;20828;-62
2023/12/27 09:34:10;;;;;;;7.70;2.92;;;4.90;99.90;;;;;;5096229;28;20626;-63
2023/12/27 09:36:37;;;;;;;6.95;3.40;;;4.90;99.90;;;;;;5096096;28;20222;-62
2023/12/27 09:39:05;;;;;;;6.32;2.35;;;5.00;99.90;;;;;;5096196;28;20204;-62
2023/12/27 09:41:32;;;;;;;5.18;2.67;;;5.00;99.90;;;;;;5096189;28;20224;-62
2023/12/27 09:44:02;;;;;;;7.75;3.10;;;5.10;99.90;;;;;;5095968;28;20269;-62
2023/12/27 09:46:30;;;;;;;7.10;2.95;;;5.20;99.90;;;;;;5095595;28;20201;-61
2023/12/27 09:48:57;;;;;;;4.53;2.25;;;5.20;99.90;;;;;;5096224;28;20277;-61
2023/12/27 09:51:25;;;;;;;5.28;2.40;;;5.30;99.90;;;;;;5096013;28;20222;-63
2023/12/27 09:53:53;;;;;;;7.45;2.30;;;5.40;99.90;;;;;;5095857;28;20220;-61
2023/12/27 09:56:23;;;;;;;7.70;2.33;;;5.40;99.90;;;;;;5095893;28;20200;-62
2023/12/27 09:58:51;;;;;;;4.95;2.25;;;5.50;99.90;;;;;;5096478;28;20196;-63
2023/12/27 10:01:21;;;;;;;10.32;2.70;;;5.60;99.90;;;;;;5095314;28;20262;-62
2023/12/27 10:03:52;;;;;;;6.07;1.90;;;5.60;99.90;;;;;;5095324;28;20189;-65
2023/12/27 10:06:30;;;;;;;9.75;2.70;;;5.70;99.90;;;;;;5095319;28;20191;-62
2023/12/27 10:08:57;;;;;;;5.10;2.30;;;5.70;99.90;;;;;;5095663;28;20186;-61
2023/12/27 10:11:26;;;;;;;6.00;3.00;;;5.70;99.90;;;;;;5095362;28;20242;-60
2023/12/27 10:13:54;;;;;;;8.05;3.10;;;5.80;99.90;;;;;;5095149;28;20259;-61
2023/12/27 10:16:21;;;;;;;7.28;2.33;;;5.80;99.90;;;;;;5095370;28;20202;-61
2023/12/27 10:18:47;;;;;;;7.15;2.55;;;5.80;99.90;;;;;;5095377;28;20207;-60
2023/12/27 10:21:16;;;;;;;5.43;2.40;;;5.90;99.90;;;;;;5095280;28;20243;-61
2023/12/27 10:23:43;;;;;;;5.45;2.80;;;5.90;99.90;;;;;;5095601;28;20221;-61
2023/12/27 10:26:09;;;;;;;10.00;2.35;;;6.00;99.90;;;;;;5095438;28;20291;-61
2023/12/27 10:28:38;;;;;;;7.30;2.03;;;6.10;99.90;;;;;;5095097;28;20207;-60
2023/12/27 10:31:06;;;;;;;7.88;2.45;;;6.10;99.90;;;;;;5095138;28;20230;-60
2023/12/27 10:33:41;;;;;;;4.25;2.08;;;6.10;99.90;;;;;;5094949;28;20269;-61
2023/12/27 10:36:09;;;;;;;9.98;2.78;;;6.20;99.90;;;;;;5095363;28;20199;-62
2023/12/27 10:38:36;;;;;;;4.90;2.10;;;6.20;99.90;;;;;;5094686;28;20204;-62
2023/12/27 10:41:05;;;;;;;4.95;2.78;;;6.30;99.90;;;;;;5094804;28;20246;-61
2023/12/27 10:43:32;;;;;;;8.32;3.20;;;6.30;99.90;;;;;;5102453;28;20688;-62
2023/12/27 10:46:00;;;;;;;6.35;2.65;;;6.40;99.90;;;;;;5100447;28;20207;-63
2023/12/27 10:48:34;;;;;;;5.75;2.10;;;6.40;99.90;;;;;;5095234;28;20200;-61
2023/12/27 10:51:00;;;;;;;5.75;2.05;;;6.50;99.90;;;;;;5095392;28;20185;-61
2023/12/27 10:53:30;;;;;;;5.22;2.00;;;6.50;99.90;;;;;;5095273;28;20220;-63
2023/12/27 10:56:00;;;;;;;7.28;2.35;;;6.60;99.90;;;;;;5097054;28;20204;-64
2023/12/27 10:58:30;;;;;;;4.20;2.00;;;6.60;99.90;;;;;;5097184;28;20200;-64
2023/12/27 11:00:58;;;;;;;5.28;2.20;;;6.60;99.90;;;;;;5097741;28;20201;-62
2023/12/27 11:03:29;;;;;;;6.95;2.83;;;6.70;99.90;;;;;;5097477;28;20638;-63
2023/12/27 11:05:57;;;;;;;6.20;2.25;;;6.70;99.90;;;;;;5095995;28;20204;-62
2023/12/27 11:08:25;;;;;;;4.40;2.40;;;6.70;99.90;;;;;;5094726;28;20204;-61
2023/12/27 11:10:53;;;;;;;7.15;3.03;;;6.80;99.90;;;;;;5095474;28;20265;-61
2023/12/27 11:13:25;;;;;;;10.35;3.72;;;6.80;99.90;;;;;;5095359;28;20220;-63
2023/12/27 11:15:53;;;;;;;4.40;2.28;;;6.80;99.90;;;;;;5094251;28;20718;-61
2023/12/27 11:18:23;;;;;;;3.53;1.90;;;6.80;99.90;;;;;;5094473;28;20203;-61
2023/12/27 11:20:54;;;;;;;6.20;2.35;;;6.90;99.90;;;;;;5093575;28;20200;-62
2023/12/27 11:23:21;;;;;;;3.53;1.90;;;6.90;99.90;;;;;;5093992;28;20234;-62
2023/12/27 11:25:48;;;;;;;6.35;2.40;;;6.90;99.90;;;;;;5093733;28;20585;-61
2023/12/27 11:28:16;;;;;;;4.50;2.30;;;6.90;99.90;;;;;;5093995;28;20215;-61
2023/12/27 11:30:45;;;;;;;8.50;2.42;;;7.00;99.90;;;;;;5094332;28;20204;-62
2023/12/27 11:33:17;;;;;;;9.05;2.72;;;7.00;99.90;;;;;;5093821;28;20243;-63
2023/12/27 11:35:46;;;;;;;5.95;2.30;;;7.00;99.90;;;;;;5093429;28;20185;-62
2023/12/27 11:38:15;;;;;;;6.70;2.40;;;7.00;99.90;;;;;;5094243;28;20210;-61
2023/12/27 11:40:44;;;;;;;4.82;1.95;;;7.00;99.90;;;;;;5094477;28;20204;-63
2023/12/27 11:43:11;;;;;;;3.47;2.10;;;7.00;99.90;;;;;;5094006;28;20208;-61
2023/12/27 11:45:57;;;;;;;9.30;2.63;;;7.00;99.90;;;;;;5093294;28;20291;-63
2023/12/27 11:48:24;;;;;;;7.55;2.97;;;7.00;99.90;;;;;;5093487;28;20199;-62
2023/12/27 11:50:50;;;;;;;8.43;3.67;;;7.00;99.90;;;;;;5093803;28;20206;-62
2023/12/27 11:53:19;;;;;;;6.47;2.90;;;7.00;99.90;;;;;;5093694;28;20247;-61
2023/12/27 11:55:47;;;;;;;6.05;2.55;;;7.00;99.90;;;;;;5093632;28;20200;-62
2023/12/27 11:58:15;;;;;;;7.00;2.65;;;7.00;99.90;;;;;;5093920;28;20550;-62
2023/12/27 12:00:42;;;;;;;7.18;2.70;;;7.00;99.90;;;;;;5093486;28;20746;-62
2023/12/27 12:03:18;;;;;;;5.43;3.70;;;7.00;99.90;;;;;;5093290;28;20277;-61
2023/12/27 12:06:07;;;;;;;4.70;3.05;;;7.00;99.90;;;;;;5093920;28;20550;-62
2023/12/27 12:08:42;;;;;;;4.93;3.45;;;7.00;99.90;;;;;;5094285;28;20185;-62
2023/12/27 12:11:11;;;;;;;7.47;2.70;;;7.00;99.90;;;;;;5094835;28;20226;-62
2023/12/27 12:13:39;;;;;;;5.03;3.05;;;7.00;99.90;;;;;;5094161;28;20216;-62
2023/12/27 12:16:07;;;;;;;7.00;3.40;;;7.00;99.90;;;;;;5094117;28;20639;-62
2023/12/27 12:18:34;;;;;;;9.20;3.20;;;7.00;99.90;;;;;;5094640;28;20200;-61
2023/12/27 12:21:01;;;;;;;4.50;2.30;;;7.00;99.90;;;;;;5093902;28;20204;-62
2023/12/27 12:23:30;;;;;;;5.97;3.15;;;7.10;99.90;;;;;;5093907;28;20192;-61
2023/12/27 12:26:00;;;;;;;7.65;3.97;;;7.10;99.90;;;;;;5093648;28;20208;-61
2023/12/27 12:28:27;;;;;;;5.05;3.05;;;7.10;99.90;;;;;;5093442;28;20208;-63
2023/12/27 12:30:55;;;;;;;10.73;4.68;;;7.10;99.90;;;;;;5092621;28;20585;-61
2023/12/27 12:33:22;;;;;;;12.07;4.90;;;7.20;99.90;;;;;;5095120;28;20220;-62
2023/12/27 12:35:49;;;;;;;10.85;4.93;;;7.30;99.90;;;;;;5097381;28;20283;-61
2023/12/27 12:38:17;;;;;;;10.77;4.00;;;7.30;99.90;;;;;;5097239;28;20196;-61
2023/12/27 12:40:44;;;;;;;8.38;3.47;;;7.40;99.90;;;;;;5096866;28;20196;-62
2023/12/27 12:43:13;;;;;;;5.13;3.10;;;7.50;99.90;;;;;;5097770;28;20287;-63
2023/12/27 12:45:40;;;;;;;6.50;3.00;;;7.50;99.90;;;;;;5098187;28;20261;-62
2023/12/27 12:48:08;;;;;;;10.95;3.90;;;7.60;99.90;;;;;;5096910;28;20200;-64
2023/12/27 12:50:35;;;;;;;8.93;3.22;;;7.60;99.90;;;;;;5101597;28;20725;-61
2023/12/27 12:53:14;;;;;;;7.40;3.65;;;7.60;99.90;;;;;;5107879;28;20216;-63
2023/12/27 12:55:42;;;;;;;6.10;2.78;;;7.60;99.90;;;;;;5097493;28;20181;-62
2023/12/27 12:58:09;;;;;;;9.45;3.85;;;7.60;99.90;;;;;;5097190;28;20634;-63